Ninety Six, South Carolina
Current Conditions -  °F | °C
As of 7:56 PM on Monday 26 Jan 2015 (Local Time) from KGRD Reporting Station
Clear Clear  
Wind Chill: 36°   Ceiling: Unl
Heat Index: 41°   Visibility: 10mi
Dew Point: 29°   Wind: 8mph
Humidity: 62%   Direction: 270°W
Pressure: 29.81"   Gusts: NA
Location:  34.18°N, 82.02°W
Report Text: KGRD 270056Z AUTO 27007KT 10SM CLR 05/M02 A2981 RMK AO2 SLP097 T00501017
Loading
Personal Weather Stations






























Interactive Weather Map New forecast layout! Learn more

10-Day Weather Forecast

Advertisements
Track Severe Weather on mobile